Time;durP1;ratioP1;P1;durP2;ratioP2;P2;SDS_P1;SDS_P2;PMS_P1;PMS_P2;Temp;Humidity;BMP_temperature;BMP_pressure;BME280_temperature;BME280_humidity;BME280_pressure;Samples;Min_cycle;Max_cycle;Signal;HPM_P1;HPM_P2
2022/08/24 00:02:06;;;;;;;32.38;29.27;;;20.80;99.90;;;;;;5034206;28;20048;-67
2022/08/24 00:04:32;;;;;;;33.75;30.48;;;20.80;99.90;;;;;;5034158;28;20037;-67
2022/08/24 00:06:58;;;;;;;34.63;30.42;;;20.80;99.90;;;;;;5035290;28;20037;-67
2022/08/24 00:09:24;;;;;;;33.00;30.00;;;20.80;99.90;;;;;;5034027;28;20466;-67
2022/08/24 00:11:49;;;;;;;32.33;29.17;;;20.70;99.90;;;;;;5034274;28;20080;-67
2022/08/24 00:14:15;;;;;;;34.55;31.00;;;20.70;99.90;;;;;;5033760;28;20521;-67
2022/08/24 00:16:41;;;;;;;35.08;31.42;;;20.70;99.90;;;;;;5034039;28;20080;-67
2022/08/24 00:19:07;;;;;;;33.72;30.38;;;20.70;99.90;;;;;;5017323;28;20041;-67
2022/08/24 00:21:32;;;;;;;28.83;26.10;;;20.70;99.90;;;;;;5033850;28;20041;-67
2022/08/24 00:23:58;;;;;;;31.73;28.65;;;20.60;99.90;;;;;;5033825;28;20056;-67
2022/08/24 00:26:24;;;;;;;31.80;28.60;;;20.60;99.90;;;;;;5033803;28;20033;-67
2022/08/24 00:28:50;;;;;;;34.40;31.02;;;20.60;99.90;;;;;;5034893;28;20049;-67
2022/08/24 00:31:16;;;;;;;34.42;31.08;;;20.60;99.90;;;;;;5033664;28;20156;-67
2022/08/24 00:33:42;;;;;;;34.80;31.25;;;20.50;99.90;;;;;;5033575;28;20411;-67
2022/08/24 00:36:08;;;;;;;34.85;31.45;;;20.50;99.90;;;;;;5033526;28;20044;-67
2022/08/24 00:38:34;;;;;;;36.33;32.40;;;20.50;99.90;;;;;;5033278;28;20120;-67
2022/08/24 00:41:01;;;;;;;36.20;32.63;;;20.40;99.90;;;;;;5033683;28;20041;-67
2022/08/24 00:43:27;;;;;;;36.10;32.70;;;20.40;99.90;;;;;;5033353;28;20099;-67
2022/08/24 00:46:06;;;;;;;37.58;33.80;;;20.40;99.90;;;;;;5033414;28;20581;-67
2022/08/24 00:48:36;;;;;;;36.65;32.92;;;20.40;99.90;;;;;;5033253;28;20468;-67
2022/08/24 00:51:10;;;;;;;39.90;35.72;;;20.30;99.90;;;;;;5033300;28;20453;-67
2022/08/24 00:53:41;;;;;;;37.22;33.42;;;20.30;99.90;;;;;;5033538;28;20052;-67
2022/08/24 00:56:25;;;;;;;40.05;35.83;;;20.20;99.90;;;;;;5033514;28;20049;-67
2022/08/24 00:58:59;;;;;;;38.30;34.53;;;20.20;99.90;;;;;;5032990;28;20464;-67
2022/08/24 01:01:25;;;;;;;38.58;34.85;;;20.20;99.90;;;;;;5033121;28;20037;-67
2022/08/24 01:03:51;;;;;;;35.60;32.00;;;20.10;99.90;;;;;;5033042;28;20520;-67
2022/08/24 01:06:17;;;;;;;35.97;32.13;;;20.10;99.90;;;;;;5032954;28;20037;-67
2022/08/24 01:08:43;;;;;;;38.00;34.38;;;20.00;99.90;;;;;;5032830;28;20076;-67
2022/08/24 01:11:14;;;;;;;39.05;35.35;;;20.00;99.90;;;;;;5034390;28;20084;-67
2022/08/24 01:13:43;;;;;;;36.22;32.58;;;20.00;99.90;;;;;;5033117;28;20056;-67
2022/08/24 01:16:11;;;;;;;38.08;34.25;;;19.90;99.90;;;;;;5033031;28;20441;-67
2022/08/24 01:18:50;;;;;;;37.88;34.35;;;19.90;99.90;;;;;;5032803;28;20128;-67
2022/08/24 01:21:20;;;;;;;39.92;36.22;;;19.80;99.90;;;;;;5032781;28;20076;-67
2022/08/24 01:23:56;;;;;;;41.03;37.03;;;19.80;99.90;;;;;;5032917;28;20457;-67
2022/08/24 01:26:48;;;;;;;42.28;37.88;;;19.80;99.90;;;;;;5015488;28;20052;-67
2022/08/24 01:29:33;;;;;;;38.65;35.10;;;19.80;99.90;;;;;;5016351;28;20502;-67
2022/08/24 01:31:59;;;;;;;42.13;38.03;;;19.80;99.90;;;;;;5032591;28;20041;-67
2022/08/24 01:34:24;;;;;;;36.63;33.22;;;19.60;99.90;;;;;;5032505;28;20038;-67
2022/08/24 01:36:54;;;;;;;39.75;35.92;;;19.60;99.90;;;;;;5032123;28;20120;-67
2022/08/24 01:39:31;;;;;;;40.03;36.17;;;19.60;99.90;;;;;;5032411;28;20053;-67
2022/08/24 01:41:58;;;;;;;41.20;37.35;;;19.60;99.90;;;;;;5032453;28;20041;-67
2022/08/24 01:44:26;;;;;;;41.55;37.38;;;19.50;99.90;;;;;;5032312;28;20401;-67
2022/08/24 01:46:53;;;;;;;40.72;37.05;;;19.50;99.90;;;;;;5015831;28;20033;-67
2022/08/24 01:49:22;;;;;;;41.88;37.47;;;19.50;99.90;;;;;;5032273;28;20443;-67
2022/08/24 01:51:47;;;;;;;39.17;35.53;;;19.50;99.90;;;;;;5032485;28;20053;-67
2022/08/24 01:54:14;;;;;;;43.08;39.15;;;19.50;99.90;;;;;;5032466;28;20468;-67
2022/08/24 01:56:40;;;;;;;41.38;37.65;;;19.50;99.90;;;;;;5015876;28;20037;-67
2022/08/24 01:59:06;;;;;;;41.60;37.80;;;19.40;99.90;;;;;;5033270;28;20513;-67
2022/08/24 02:01:36;;;;;;;40.63;36.83;;;19.40;99.90;;;;;;5032118;28;20521;-67
2022/08/24 02:04:04;;;;;;;43.30;38.90;;;19.40;99.90;;;;;;5015684;28;20083;-67
2022/08/24 02:06:31;;;;;;;37.80;34.17;;;19.40;99.90;;;;;;5032030;28;20049;-67
2022/08/24 02:08:56;;;;;;;27.95;25.45;;;19.40;99.90;;;;;;5032197;28;20473;-67
2022/08/24 02:11:22;;;;;;;32.80;29.85;;;19.30;99.90;;;;;;5031924;28;20566;-67
2022/08/24 02:13:48;;;;;;;34.65;31.40;;;19.30;99.90;;;;;;5032181;28;20137;-67
2022/08/24 02:16:13;;;;;;;40.00;36.20;;;19.40;99.90;;;;;;5031927;28;20494;-67
2022/08/24 02:18:39;;;;;;;40.88;37.17;;;19.40;99.90;;;;;;5031699;28;20052;-67
2022/08/24 02:21:07;;;;;;;41.10;37.28;;;19.30;99.90;;;;;;5032135;28;20041;-67
2022/08/24 02:23:34;;;;;;;42.05;38.15;;;19.40;99.90;;;;;;5032092;28;20053;-67
2022/08/24 02:26:01;;;;;;;43.03;39.10;;;19.30;99.90;;;;;;5031818;28;20048;-67
2022/08/24 02:28:27;;;;;;;41.03;37.22;;;19.30;99.90;;;;;;5031697;28;20429;-67
2022/08/24 02:30:54;;;;;;;39.80;36.13;;;19.30;99.90;;;;;;5031698;28;20038;-67
2022/08/24 02:33:20;;;;;;;44.75;40.38;;;19.30;99.90;;;;;;5032040;28;20037;-67
2022/08/24 02:35:46;;;;;;;42.72;38.80;;;19.30;99.90;;;;;;5031725;28;20053;-67
2022/08/24 02:38:11;;;;;;;39.47;35.42;;;19.20;99.90;;;;;;5033058;28;20038;-67
2022/08/24 02:40:37;;;;;;;39.03;35.42;;;19.10;99.90;;;;;;5035734;28;20057;-67
2022/08/24 02:43:04;;;;;;;41.75;37.47;;;19.10;99.90;;;;;;5035978;28;20053;-67
2022/08/24 02:45:30;;;;;;;40.38;36.60;;;19.10;99.90;;;;;;5035973;28;20054;-67
2022/08/24 02:47:56;;;;;;;39.33;35.53;;;19.10;99.90;;;;;;5035870;28;20209;-67
2022/08/24 02:50:22;;;;;;;40.35;36.65;;;19.10;99.90;;;;;;5035824;28;20125;-67
2022/08/24 02:52:47;;;;;;;39.00;35.40;;;19.10;99.90;;;;;;5035576;28;20524;-67
2022/08/24 02:55:17;;;;;;;39.05;35.38;;;19.10;99.90;;;;;;5036740;28;20037;-67
2022/08/24 02:57:42;;;;;;;41.60;37.70;;;19.10;99.90;;;;;;5035686;28;20050;-67
2022/08/24 03:00:12;;;;;;;43.75;39.65;;;19.00;99.90;;;;;;5035351;28;20524;-67
2022/08/24 03:02:38;;;;;;;43.75;39.15;;;19.00;99.90;;;;;;5035329;28;20091;-67
2022/08/24 03:05:04;;;;;;;41.60;37.78;;;19.00;99.90;;;;;;5035582;28;20033;-67
2022/08/24 03:07:30;;;;;;;40.20;36.63;;;19.00;99.90;;;;;;5036748;28;20124;-67
2022/08/24 03:09:55;;;;;;;38.72;35.03;;;19.00;99.90;;;;;;5035466;28;20120;-67
2022/08/24 03:12:21;;;;;;;39.13;35.42;;;19.00;99.90;;;;;;5018731;28;20099;-67
2022/08/24 03:14:46;;;;;;;37.45;33.97;;;18.90;99.90;;;;;;5035085;28;20045;-67
2022/08/24 03:17:12;;;;;;;39.15;35.45;;;18.90;99.90;;;;;;5034978;28;20196;-67
2022/08/24 03:19:38;;;;;;;38.58;34.85;;;18.90;99.90;;;;;;5036380;28;20050;-67
2022/08/24 03:22:04;;;;;;;37.47;34.03;;;18.90;99.90;;;;;;5034964;28;20095;-67
2022/08/24 03:24:30;;;;;;;36.83;33.38;;;18.80;99.90;;;;;;5034851;28;20045;-67
2022/08/24 03:26:56;;;;;;;37.42;33.92;;;18.80;99.90;;;;;;5034758;28;20048;-67
2022/08/24 03:29:22;;;;;;;37.67;33.70;;;18.80;99.90;;;;;;5035100;28;20034;-67
2022/08/24 03:31:48;;;;;;;39.47;35.85;;;18.80;99.90;;;;;;5018323;28;20508;-67
2022/08/24 03:34:14;;;;;;;40.42;36.65;;;18.80;99.90;;;;;;5034722;28;20458;-67
2022/08/24 03:36:44;;;;;;;41.58;37.47;;;18.80;99.90;;;;;;5035990;28;20045;-67
2022/08/24 03:39:10;;;;;;;39.00;35.40;;;18.80;99.90;;;;;;5034675;28;20041;-67
2022/08/24 03:41:35;;;;;;;35.65;32.38;;;18.70;99.90;;;;;;5034866;28;20036;-67
2022/08/24 03:44:01;;;;;;;37.45;33.85;;;18.70;99.90;;;;;;5018149;28;20553;-67
2022/08/24 03:46:28;;;;;;;34.55;31.25;;;18.70;99.90;;;;;;5034725;28;20041;-67
2022/08/24 03:48:55;;;;;;;34.00;30.83;;;18.70;99.90;;;;;;5035904;28;20049;-67
2022/08/24 03:51:23;;;;;;;33.42;30.25;;;18.60;99.90;;;;;;5033993;28;20067;-67
2022/08/24 03:53:50;;;;;;;33.67;30.48;;;18.60;99.90;;;;;;5034626;28;20414;-67
2022/08/24 03:56:17;;;;;;;32.85;29.65;;;18.60;99.90;;;;;;5034385;28;20128;-67
2022/08/24 03:58:43;;;;;;;32.40;29.08;;;18.60;99.90;;;;;;5034448;28;20072;-67
2022/08/24 04:01:10;;;;;;;31.25;28.27;;;18.60;99.90;;;;;;5034300;28;20401;-67
2022/08/24 04:03:37;;;;;;;33.10;29.80;;;18.50;99.90;;;;;;5034232;28;20045;-67
2022/08/24 04:06:04;;;;;;;29.55;26.67;;;18.50;99.90;;;;;;5034279;28;20077;-67
2022/08/24 04:08:30;;;;;;;29.45;26.65;;;18.50;99.90;;;;;;5034122;28;20042;-67
2022/08/24 04:10:55;;;;;;;33.53;30.33;;;18.50;99.90;;;;;;5034063;28;20091;-67
2022/08/24 04:13:21;;;;;;;32.72;29.65;;;18.40;99.90;;;;;;5035521;28;20056;-67
2022/08/24 04:15:49;;;;;;;29.67;26.85;;;18.40;99.90;;;;;;5034011;28;20124;-67
2022/08/24 04:18:14;;;;;;;28.15;25.30;;;18.30;99.90;;;;;;5033934;28;20132;-67
2022/08/24 04:20:41;;;;;;;30.25;27.52;;;18.30;99.90;;;;;;5033823;28;20129;-67
2022/08/24 04:23:08;;;;;;;31.70;28.40;;;18.40;99.90;;;;;;5034701;28;20053;-67
2022/08/24 04:25:46;;;;;;;31.05;28.05;;;18.30;99.90;;;;;;5033846;28;20037;-67
2022/08/24 04:28:14;;;;;;;31.48;28.55;;;18.40;99.90;;;;;;5033717;28;20041;-67
2022/08/24 04:30:49;;;;;;;31.02;28.10;;;18.40;99.90;;;;;;5034044;28;20045;-67
2022/08/24 04:33:15;;;;;;;34.33;30.85;;;18.40;99.90;;;;;;5033743;28;20510;-67
2022/08/24 04:35:45;;;;;;;32.03;28.73;;;18.40;99.90;;;;;;5033642;28;20510;-67
2022/08/24 04:38:11;;;;;;;28.92;26.13;;;18.40;99.90;;;;;;5033738;28;20045;-67
2022/08/24 04:40:43;;;;;;;28.20;25.50;;;18.40;99.90;;;;;;5033543;28;20592;-67
2022/08/24 04:43:09;;;;;;;27.20;24.50;;;18.40;99.90;;;;;;5033833;28;20493;-67
2022/08/24 04:45:39;;;;;;;28.08;25.38;;;18.30;99.90;;;;;;5033744;28;20112;-67
2022/08/24 04:48:05;;;;;;;27.25;24.75;;;18.40;99.90;;;;;;5033456;28;20045;-67
2022/08/24 04:50:35;;;;;;;27.35;24.75;;;18.30;99.90;;;;;;5033610;28;20107;-67
2022/08/24 04:53:03;;;;;;;29.10;26.30;;;18.30;99.90;;;;;;5033317;28;20052;-67
2022/08/24 04:55:28;;;;;;;28.17;25.48;;;18.30;99.90;;;;;;5033570;28;20068;-67
2022/08/24 04:57:54;;;;;;;32.60;29.48;;;18.30;99.90;;;;;;5033170;28;20045;-67
2022/08/24 05:00:19;;;;;;;34.15;30.52;;;18.40;99.90;;;;;;5033081;28;20045;-67
2022/08/24 05:02:45;;;;;;;30.63;27.90;;;18.40;99.90;;;;;;5032204;28;20044;-67
2022/08/24 05:05:11;;;;;;;35.13;30.98;;;18.30;99.90;;;;;;5016622;28;20118;-67
2022/08/24 05:07:37;;;;;;;36.58;32.67;;;18.30;99.90;;;;;;5032927;28;20117;-67
2022/08/24 05:10:05;;;;;;;36.17;32.78;;;18.40;99.90;;;;;;5034757;28;20044;-67
2022/08/24 05:12:31;;;;;;;34.72;31.52;;;18.40;99.90;;;;;;5032967;28;20052;-67
2022/08/24 05:14:57;;;;;;;38.90;34.28;;;18.50;99.90;;;;;;5032835;28;20049;-67
2022/08/24 05:17:24;;;;;;;36.22;32.67;;;18.40;99.90;;;;;;5033048;28;20494;-67
2022/08/24 05:19:50;;;;;;;38.28;34.33;;;18.50;99.90;;;;;;5032835;28;20499;-70
2022/08/24 05:22:15;;;;;;;39.78;35.97;;;18.50;99.90;;;;;;5033005;28;20038;-70
2022/08/24 05:24:41;;;;;;;44.30;39.75;;;18.60;99.90;;;;;;5032702;28;20513;-70
2022/08/24 05:27:07;;;;;;;39.85;36.15;;;18.60;99.90;;;;;;5033391;28;20041;-70
2022/08/24 05:29:33;;;;;;;41.28;37.05;;;18.60;99.90;;;;;;5032621;28;20049;-70
2022/08/24 05:31:59;;;;;;;38.78;34.55;;;18.60;99.90;;;;;;5033817;28;20060;-70
2022/08/24 05:34:24;;;;;;;36.10;32.38;;;18.60;99.90;;;;;;5032557;28;20045;-70
2022/08/24 05:36:50;;;;;;;34.25;30.75;;;18.60;99.90;;;;;;5032291;28;20038;-72
2022/08/24 05:39:16;;;;;;;35.75;32.17;;;18.70;99.90;;;;;;5015947;28;20044;-73
2022/08/24 05:41:43;;;;;;;36.92;32.97;;;18.70;99.90;;;;;;5032411;28;20092;-73
2022/08/24 05:44:09;;;;;;;38.10;34.22;;;18.70;99.90;;;;;;5032371;28;20124;-73
2022/08/24 05:46:35;;;;;;;36.88;33.22;;;18.80;99.90;;;;;;5032545;28;20401;-72
2022/08/24 05:49:01;;;;;;;38.40;34.47;;;18.80;99.90;;;;;;5032236;28;20042;-72
2022/08/24 05:51:28;;;;;;;38.60;34.67;;;18.80;99.90;;;;;;5032532;28;20045;-73
2022/08/24 05:53:55;;;;;;;35.60;32.15;;;18.90;99.90;;;;;;5032230;28;20084;-72
2022/08/24 05:56:21;;;;;;;42.08;37.78;;;18.90;99.90;;;;;;5032195;28;20501;-72
2022/08/24 05:58:47;;;;;;;41.35;37.20;;;19.00;99.90;;;;;;5032022;28;20132;-73
2022/08/24 06:01:19;;;;;;;48.10;43.47;;;19.10;99.90;;;;;;5032172;28;20073;-73
2022/08/24 06:03:46;;;;;;;47.75;43.03;;;19.10;99.90;;;;;;5032075;28;20525;-73
2022/08/24 06:06:12;;;;;;;49.55;44.65;;;19.20;99.90;;;;;;5032032;28;20037;-73
2022/08/24 06:08:40;;;;;;;48.63;43.72;;;19.20;99.90;;;;;;5032006;28;20040;-73
2022/08/24 06:11:06;;;;;;;44.60;40.15;;;19.30;99.90;;;;;;5032276;28;20073;-73
2022/08/24 06:13:32;;;;;;;46.03;40.80;;;19.30;99.90;;;;;;5031696;28;20080;-72
2022/08/24 06:16:11;;;;;;;49.03;43.63;;;19.40;99.90;;;;;;5031973;28;20041;-73
2022/08/24 06:18:38;;;;;;;50.75;45.45;;;19.40;99.90;;;;;;5031785;28;20041;-73
2022/08/24 06:21:06;;;;;;;49.92;44.67;;;19.40;99.90;;;;;;5032116;28;20044;-73
2022/08/24 06:23:32;;;;;;;47.30;42.45;;;19.50;99.90;;;;;;5032095;28;20033;-73
2022/08/24 06:28:43;;;;;;;48.28;43.45;;;19.60;99.90;;;;;;5031726;28;20049;-73
2022/08/24 06:31:08;;;;;;;49.60;44.72;;;19.60;99.90;;;;;;5031825;28;20045;-73
2022/08/24 06:33:34;;;;;;;51.95;46.40;;;19.70;99.90;;;;;;5031740;28;20144;-73
2022/08/24 06:36:00;;;;;;;50.50;45.10;;;19.80;99.90;;;;;;5031740;28;20045;-73
2022/08/24 06:38:26;;;;;;;50.97;46.08;;;19.90;99.90;;;;;;5031475;28;20045;-72
2022/08/24 06:40:51;;;;;;;51.25;45.92;;;20.00;99.90;;;;;;5031925;28;20033;-72
2022/08/24 06:43:17;;;;;;;48.45;43.83;;;20.00;99.90;;;;;;5031921;28;20115;-73
2022/08/24 06:45:43;;;;;;;50.83;45.92;;;20.10;99.90;;;;;;5031971;28;20030;-72
2022/08/24 06:48:09;;;;;;;51.00;45.80;;;20.20;99.90;;;;;;5031522;28;20125;-72
2022/08/24 06:50:35;;;;;;;49.75;45.03;;;20.30;99.90;;;;;;5031526;28;20124;-72
2022/08/24 06:53:01;;;;;;;51.53;46.53;;;20.40;99.90;;;;;;5031567;28;20045;-73
2022/08/24 06:55:27;;;;;;;49.40;44.28;;;20.40;99.90;;;;;;5031535;28;20069;-73
2022/08/24 06:57:54;;;;;;;48.30;43.40;;;20.50;99.90;;;;;;5031411;28;20120;-72
2022/08/24 07:00:20;;;;;;;46.40;41.42;;;20.60;99.90;;;;;;5031487;28;20129;-73
2022/08/24 07:02:46;;;;;;;44.40;39.97;;;20.70;99.90;;;;;;5032713;28;20482;-73
2022/08/24 07:05:12;;;;;;;45.17;40.13;;;20.80;99.90;;;;;;5031467;28;20036;-72
2022/08/24 07:07:38;;;;;;;41.58;37.33;;;20.90;99.90;;;;;;5032641;28;20049;-72
2022/08/24 07:10:05;;;;;;;44.40;38.05;;;21.00;99.90;;;;;;5031581;28;20045;-73
2022/08/24 07:12:31;;;;;;;40.70;36.33;;;21.10;99.90;;;;;;5031424;28;20049;-73
2022/08/24 07:14:56;;;;;;;36.05;32.50;;;21.20;99.90;;;;;;5031367;28;20050;-73
2022/08/24 07:17:22;;;;;;;36.20;32.67;;;21.30;99.90;;;;;;5015093;28;20057;-72
2022/08/24 07:19:48;;;;;;;34.25;29.67;;;21.40;99.90;;;;;;5014648;28;20041;-72
2022/08/24 07:22:13;;;;;;;32.83;29.23;;;21.50;99.90;;;;;;5031351;28;20041;-72
2022/08/24 07:24:40;;;;;;;31.23;28.02;;;21.60;99.90;;;;;;5031872;28;20033;-73
2022/08/24 07:27:05;;;;;;;29.58;26.67;;;21.70;99.90;;;;;;5036140;28;20042;-72
2022/08/24 07:29:31;;;;;;;31.35;28.25;;;21.80;99.90;;;;;;5034853;28;20049;-72
2022/08/24 07:31:57;;;;;;;31.30;28.00;;;21.90;99.90;;;;;;5034848;28;20052;-72
2022/08/24 07:34:23;;;;;;;28.48;24.92;;;22.10;99.90;;;;;;5034838;28;20414;-72
2022/08/24 07:36:51;;;;;;;25.67;22.25;;;22.10;99.90;;;;;;5034477;28;20041;-72
2022/08/24 07:39:16;;;;;;;24.35;21.02;;;22.30;99.90;;;;;;5034734;28;20120;-73
2022/08/24 07:41:43;;;;;;;21.42;19.15;;;22.40;99.90;;;;;;5034713;28;20084;-73
2022/08/24 07:44:11;;;;;;;21.05;17.42;;;22.50;99.90;;;;;;5034646;28;20037;-73
2022/08/24 07:46:38;;;;;;;22.40;20.17;;;22.70;99.90;;;;;;5034835;28;20059;-72
2022/08/24 07:49:04;;;;;;;20.48;18.40;;;22.80;99.90;;;;;;5034460;28;20042;-72
2022/08/24 07:51:30;;;;;;;17.83;12.02;;;22.90;99.90;;;;;;5034492;28;20045;-72
2022/08/24 07:53:55;;;;;;;13.95;9.25;;;23.00;99.90;;;;;;5034454;28;20060;-73
2022/08/24 07:56:21;;;;;;;17.52;11.80;;;23.10;99.90;;;;;;5018194;28;20124;-73
2022/08/24 07:58:47;;;;;;;18.48;14.88;;;23.30;99.90;;;;;;5018005;28;20145;-72
2022/08/24 08:01:12;;;;;;;17.23;13.23;;;23.40;99.90;;;;;;5034380;28;20140;-72
2022/08/24 08:03:38;;;;;;;15.00;11.77;;;23.50;99.90;;;;;;5034496;28;20041;-72
2022/08/24 08:06:06;;;;;;;16.40;13.98;;;23.70;99.90;;;;;;5034197;28;20125;-70
2022/08/24 08:08:35;;;;;;;21.00;12.55;;;23.90;99.90;;;;;;5034405;28;20059;-70
2022/08/24 08:11:01;;;;;;;12.50;10.60;;;24.00;99.90;;;;;;5034132;28;20490;-70
2022/08/24 08:13:28;;;;;;;11.15;8.30;;;24.20;99.90;;;;;;5034060;28;20561;-71
2022/08/24 08:15:55;;;;;;;11.35;7.20;;;24.30;99.90;;;;;;5034271;28;20152;-70
2022/08/24 08:18:21;;;;;;;15.68;9.38;;;24.50;99.90;;;;;;5033959;28;20038;-70
2022/08/24 08:20:47;;;;;;;14.23;8.80;;;24.70;99.90;;;;;;5033923;28;20043;-70
2022/08/24 08:25:58;;;;;;;14.60;9.15;;;24.90;99.90;;;;;;5035159;28;20042;-70
2022/08/24 08:28:25;;;;;;;15.50;10.13;;;25.10;99.90;;;;;;5033742;28;20045;-70
2022/08/24 08:30:52;;;;;;;13.90;9.80;;;25.30;99.90;;;;;;5017269;28;20091;-70
2022/08/24 08:33:17;;;;;;;13.25;9.88;;;25.50;99.90;;;;;;5034993;28;20064;-70
2022/08/24 08:35:43;;;;;;;15.10;8.93;;;25.60;99.90;;;;;;5033781;28;20037;-70
2022/08/24 08:38:09;;;;;;;12.52;7.15;;;25.70;99.90;;;;;;5033447;28;20038;-70
2022/08/24 08:40:44;;;;;;;11.93;7.57;;;25.90;99.90;;;;;;5033488;28;20406;-70
2022/08/24 08:43:27;;;;;;;13.07;7.32;;;26.00;99.90;;;;;;5033549;28;20072;-71
2022/08/24 08:46:25;;;;;;;14.68;7.43;;;26.20;99.90;;;;;;5033553;28;20046;-70
2022/08/24 08:49:01;;;;;;;10.68;7.80;;;26.30;99.90;;;;;;5033371;28;20489;-70
2022/08/24 08:51:38;;;;;;;12.05;7.82;;;26.50;99.90;;;;;;5033366;28;20045;-71
2022/08/24 08:54:22;;;;;;;10.82;6.40;;;26.60;99.90;;;;;;5033640;28;20081;-71
2022/08/24 08:57:03;;;;;;;8.13;5.97;;;26.80;99.90;;;;;;5033213;28;20045;-69
2022/08/24 08:59:28;;;;;;;14.73;5.60;;;27.00;99.90;;;;;;5033263;28;20045;-71
2022/08/24 09:02:28;;;;;;;11.95;7.38;;;27.20;99.90;;;;;;5016908;28;20116;-71
2022/08/24 09:05:01;;;;;;;15.35;6.55;;;27.30;97.10;;;;;;5033036;28;20037;-71
2022/08/24 09:07:42;;;;;;;11.15;4.80;;;27.50;99.30;;;;;;5032924;28;20082;-71
2022/08/24 09:10:34;;;;;;;12.20;5.88;;;27.70;98.50;;;;;;5033239;28;20072;-71
2022/08/24 09:13:26;;;;;;;8.07;5.05;;;27.90;96.40;;;;;;5033269;28;20049;-71
2022/08/24 09:16:14;;;;;;;11.30;5.65;;;28.00;95.90;;;;;;5014309;28;20063;-71
2022/08/24 09:19:15;;;;;;;9.57;5.43;;;28.30;94.00;;;;;;5032695;28;20077;-70
2022/08/24 09:22:05;;;;;;;11.88;4.85;;;28.40;91.70;;;;;;5016291;28;20038;-71
2022/08/24 09:24:53;;;;;;;7.53;5.40;;;28.60;90.80;;;;;;5016359;28;20052;-71
2022/08/24 09:27:58;;;;;;;7.43;3.88;;;28.70;88.80;;;;;;5032668;28;20080;-70
2022/08/24 09:30:34;;;;;;;7.40;4.15;;;28.90;90.70;;;;;;5033838;28;20053;-70
2022/08/24 09:33:08;;;;;;;9.18;4.28;;;29.10;89.10;;;;;;5032650;28;20041;-71
2022/08/24 09:35:58;;;;;;;7.72;4.18;;;29.20;86.90;;;;;;5032900;28;20458;-71
2022/08/24 09:38:53;;;;;;;8.00;3.83;;;29.30;86.10;;;;;;5032337;28;20091;-70
2022/08/24 09:41:40;;;;;;;8.05;3.70;;;29.60;83.20;;;;;;5032453;28;20513;-70
2022/08/24 09:44:29;;;;;;;8.70;4.78;;;29.80;82.70;;;;;;5032663;28;20060;-71
2022/08/24 09:47:23;;;;;;;6.18;3.83;;;29.90;76.30;;;;;;5032175;28;20072;-70
2022/08/24 09:50:03;;;;;;;5.95;3.47;;;29.90;76.00;;;;;;5032335;28;20087;-70
2022/08/24 09:53:07;;;;;;;7.15;3.92;;;30.20;76.50;;;;;;5032538;28;20045;-71
2022/08/24 09:55:58;;;;;;;9.10;3.70;;;30.30;75.40;;;;;;5032539;28;20380;-71
2022/08/24 09:59:00;;;;;;;9.35;4.15;;;30.50;75.20;;;;;;5032135;28;20127;-71
2022/08/24 10:02:03;;;;;;;8.13;4.43;;;30.80;77.20;;;;;;5032740;28;20049;-71
2022/08/24 10:04:48;;;;;;;6.10;3.90;;;30.90;70.50;;;;;;5033326;28;20299;-73
2022/08/24 10:07:34;;;;;;;7.47;4.03;;;30.90;71.90;;;;;;5032016;28;20409;-70
2022/08/24 10:10:21;;;;;;;8.18;4.00;;;31.10;71.40;;;;;;5033253;28;20049;-70
2022/08/24 10:12:54;;;;;;;11.10;5.25;;;31.10;72.60;;;;;;5033411;28;20068;-71
2022/08/24 10:15:27;;;;;;;7.25;4.85;;;31.30;69.30;;;;;;5031986;28;20409;-71
2022/08/24 10:18:14;;;;;;;8.43;5.30;;;31.40;68.80;;;;;;5031922;28;20546;-70
2022/08/24 10:21:09;;;;;;;7.68;4.07;;;31.50;66.90;;;;;;5031855;28;20037;-70
2022/08/24 10:24:06;;;;;;;7.65;4.88;;;31.60;67.60;;;;;;5026590;28;20041;-70
2022/08/24 10:26:38;;;;;;;7.65;3.88;;;31.90;66.30;;;;;;5031553;28;20045;-71
2022/08/24 10:29:12;;;;;;;7.53;3.87;;;31.90;67.40;;;;;;5031970;28;20494;-70
2022/08/24 10:31:58;;;;;;;9.05;5.40;;;32.10;65.60;;;;;;5031836;28;20502;-70
2022/08/24 10:34:59;;;;;;;4.90;3.03;;;32.20;64.80;;;;;;5024590;28;20049;-71
2022/08/24 10:39:39;;;;;;;8.20;4.20;;;32.20;65.40;;;;;;4994334;28;20050;-72
2022/08/24 10:41:25;;;;;;;8.32;2.75;;;32.30;62.80;;;;;;4994450;28;20050;-71
2022/08/24 10:44:11;;;;;;;9.88;3.15;;;32.40;63.60;;;;;;4975036;28;20050;-71
2022/08/24 10:46:51;;;;;;;5.03;3.35;;;32.50;63.10;;;;;;4994791;28;20188;-70
2022/08/24 10:49:28;;;;;;;9.45;3.58;;;32.60;60.70;;;;;;4994648;28;20053;-71
2022/08/24 10:52:17;;;;;;;5.13;2.40;;;32.60;60.40;;;;;;4994722;28;20046;-71
2022/08/24 10:54:44;;;;;;;4.60;2.50;;;32.70;60.70;;;;;;4994628;28;20042;-71
2022/08/24 10:57:30;;;;;;;2.72;1.67;;;32.60;60.10;;;;;;4994574;28;20050;-71
2022/08/24 11:00:13;;;;;;;5.90;1.60;;;32.80;61.00;;;;;;4995784;28;20066;-71
2022/08/24 11:02:41;;;;;;;3.13;1.50;;;32.90;59.70;;;;;;4998747;28;20056;-71
2022/08/24 11:05:41;;;;;;;3.03;1.48;;;32.90;59.40;;;;;;4982206;28;20109;-71
2022/08/24 11:08:07;;;;;;;4.57;1.60;;;32.80;58.00;;;;;;5011556;28;20514;-71
2022/08/24 11:10:37;;;;;;;2.35;1.10;;;33.00;58.50;;;;;;4998279;28;20124;-71
2022/08/24 11:13:22;;;;;;;3.03;1.45;;;33.20;59.80;;;;;;5017104;28;20041;-71
2022/08/24 11:15:58;;;;;;;4.22;1.30;;;33.40;56.90;;;;;;5035285;28;20084;-70
2022/08/24 11:18:24;;;;;;;4.28;1.40;;;33.40;58.50;;;;;;5035147;28;20041;-70
2022/08/24 11:20:53;;;;;;;2.97;1.20;;;33.50;56.50;;;;;;5035001;28;20410;-71
2022/08/24 11:23:27;;;;;;;2.70;1.45;;;33.60;56.00;;;;;;5036254;28;20079;-71
2022/08/24 11:26:01;;;;;;;6.40;1.17;;;33.70;56.60;;;;;;5035235;28;20038;-71
2022/08/24 11:28:39;;;;;;;3.25;1.15;;;33.80;56.70;;;;;;5018464;28;20053;-71
2022/08/24 11:31:10;;;;;;;3.40;1.35;;;33.60;56.00;;;;;;5034987;28;20029;-71
2022/08/24 11:33:56;;;;;;;3.47;1.63;;;33.70;56.00;;;;;;5035176;28;20486;-71
2022/08/24 11:36:26;;;;;;;3.50;1.60;;;33.90;54.90;;;;;;5034826;28;20034;-71
2022/08/24 11:39:14;;;;;;;4.55;1.40;;;34.00;56.10;;;;;;5035000;28;20434;-71
2022/08/24 11:41:58;;;;;;;3.33;1.27;;;34.20;54.50;;;;;;5035000;28;20053;-71
2022/08/24 11:44:41;;;;;;;4.30;1.30;;;34.40;53.80;;;;;;5018092;28;20045;-70
2022/08/24 11:47:12;;;;;;;3.63;1.20;;;34.60;54.00;;;;;;5034732;28;20038;-70
2022/08/24 11:49:51;;;;;;;3.25;1.20;;;34.70;53.20;;;;;;5017979;28;20053;-71
2022/08/24 11:52:54;;;;;;;4.85;1.35;;;34.90;53.90;;;;;;5034559;28;20061;-71
2022/08/24 11:56:11;;;;;;;5.75;1.50;;;35.00;52.80;;;;;;5014243;28;20063;-71
2022/08/24 11:58:43;;;;;;;2.95;1.33;;;35.00;52.20;;;;;;5017638;28;20143;-71
2022/08/24 12:01:34;;;;;;;4.55;1.30;;;35.10;52.40;;;;;;5034346;28;20048;-71
2022/08/24 12:04:16;;;;;;;2.47;1.40;;;35.10;51.80;;;;;;5034386;28;20038;-71
2022/08/24 12:07:19;;;;;;;3.35;1.30;;;35.10;51.10;;;;;;5034495;28;20081;-70
2022/08/24 12:10:27;;;;;;;3.97;1.30;;;35.10;51.90;;;;;;5034338;28;20037;-71
2022/08/24 12:13:02;;;;;;;4.03;1.30;;;35.20;51.80;;;;;;4997516;28;20061;-71
2022/08/24 12:15:45;;;;;;;5.45;1.10;;;34.80;51.20;;;;;;4997106;28;20088;-71
2022/08/24 12:18:35;;;;;;;4.03;1.30;;;34.40;51.40;;;;;;4997278;28;20545;-71
2022/08/24 12:21:01;;;;;;;2.00;0.73;;;34.00;51.80;;;;;;4996998;28;20502;-71
2022/08/24 12:23:37;;;;;;;3.45;1.20;;;34.20;53.60;;;;;;4997429;28;20069;-71
2022/08/24 12:26:12;;;;;;;6.43;1.10;;;34.20;50.80;;;;;;4996971;28;20045;-71
2022/08/24 12:28:49;;;;;;;5.00;1.40;;;33.90;51.90;;;;;;5013239;28;20050;-71
2022/08/24 12:31:44;;;;;;;3.35;1.50;;;33.50;53.30;;;;;;4997687;28;20053;-71
2022/08/24 12:34:19;;;;;;;4.68;1.40;;;33.20;53.60;;;;;;4997087;28;20056;-71
2022/08/24 12:36:55;;;;;;;4.05;1.48;;;32.90;54.90;;;;;;4996553;28;20056;-70
2022/08/24 12:39:27;;;;;;;3.40;1.23;;;32.70;55.30;;;;;;4996856;28;20045;-71
2022/08/24 12:42:13;;;;;;;2.30;1.17;;;32.60;55.60;;;;;;4996733;28;20528;-71
2022/08/24 12:44:49;;;;;;;1.95;1.17;;;32.40;55.90;;;;;;4996836;28;20083;-71
2022/08/24 12:47:36;;;;;;;3.85;1.33;;;32.50;56.20;;;;;;4997437;28;20133;-70
2022/08/24 12:50:41;;;;;;;3.88;1.23;;;32.80;56.00;;;;;;5033495;28;20049;-71
2022/08/24 12:53:19;;;;;;;1.77;1.20;;;33.40;57.40;;;;;;5034226;28;20045;-71
2022/08/24 12:55:54;;;;;;;5.82;1.00;;;33.80;55.40;;;;;;5017139;28;20049;-71
2022/08/24 12:58:38;;;;;;;3.00;1.10;;;34.10;55.50;;;;;;5033296;28;20052;-71
2022/08/24 13:01:05;;;;;;;5.43;1.50;;;34.40;55.10;;;;;;5033287;28;20554;-71
2022/08/24 13:03:37;;;;;;;3.60;1.25;;;34.70;53.20;;;;;;5033210;28;20081;-71
2022/08/24 13:06:25;;;;;;;2.30;0.80;;;34.90;52.20;;;;;;5033569;28;20482;-71